createdAt,value
2018-10-09T00:01:50.461Z,80.93
2018-10-09T00:04:18.708Z,81.20
2018-10-09T00:06:46.932Z,82.52
2018-10-09T00:09:15.150Z,81.88
2018-10-09T00:11:43.353Z,80.57
2018-10-09T00:14:11.567Z,80.87
2018-10-09T00:16:39.784Z,80.62
2018-10-09T00:19:08.009Z,80.45
2018-10-09T00:21:36.237Z,81.18
2018-10-09T00:24:04.481Z,82.20
2018-10-09T00:26:32.705Z,81.58
2018-10-09T00:29:00.950Z,82.10
2018-10-09T00:31:29.170Z,82.27
2018-10-09T00:33:57.398Z,82.63
2018-10-09T00:36:25.693Z,82.37
2018-10-09T00:38:53.928Z,83.82
2018-10-09T00:41:22.158Z,83.58
2018-10-09T00:43:50.399Z,85.19
2018-10-09T00:46:18.634Z,84.74
2018-10-09T00:48:46.907Z,84.99
2018-10-09T00:51:15.189Z,85.41
2018-10-09T00:53:43.402Z,84.36
2018-10-09T00:56:11.653Z,84.40
2018-10-09T00:58:39.857Z,83.60
2018-10-09T01:01:08.337Z,83.67
2018-10-09T01:03:36.585Z,83.83
2018-10-09T01:06:04.893Z,83.84
2018-10-09T01:08:33.120Z,85.62
2018-10-09T01:11:01.853Z,86.17
2018-10-09T01:13:31.194Z,85.86
2018-10-09T01:15:59.417Z,86.17
2018-10-09T01:18:27.628Z,86.59
2018-10-09T01:20:55.888Z,85.37
2018-10-09T01:23:24.077Z,86.40
2018-10-09T01:25:52.318Z,86.39
2018-10-09T01:28:20.574Z,85.71
2018-10-09T01:30:48.816Z,85.45
2018-10-09T01:33:20.117Z,84.69
2018-10-09T01:35:48.337Z,84.91
2018-10-09T01:38:16.573Z,84.13
2018-10-09T01:40:44.817Z,83.17
2018-10-09T01:43:13.014Z,82.97
2018-10-09T01:45:41.215Z,82.83
2018-10-09T01:48:09.457Z,82.53
2018-10-09T01:50:37.760Z,82.48
2018-10-09T01:53:06.028Z,82.76
2018-10-09T01:55:34.240Z,84.63
2018-10-09T01:58:02.501Z,83.90
2018-10-09T02:00:30.689Z,83.94
2018-10-09T02:02:58.921Z,84.19
2018-10-09T02:05:27.153Z,83.54
2018-10-09T02:07:55.498Z,84.46
2018-10-09T02:10:23.744Z,83.68
2018-10-09T02:12:51.970Z,83.92
2018-10-09T02:15:20.235Z,84.28
2018-10-09T02:17:48.711Z,84.89
2018-10-09T02:20:16.953Z,83.69
2018-10-09T02:22:46.082Z,84.27
2018-10-09T02:25:14.298Z,85.99
2018-10-09T02:27:42.544Z,85.50
2018-10-09T02:30:11.138Z,84.96
2018-10-09T02:32:39.386Z,86.03
2018-10-09T02:35:07.628Z,87.11
2018-10-09T02:37:39.742Z,86.29
2018-10-09T02:40:08.021Z,85.45
2018-10-09T02:42:36.258Z,85.11
2018-10-09T02:47:55.275Z,85.05
2018-10-09T02:50:25.585Z,85.29
2018-10-09T02:52:53.816Z,85.24
2018-10-09T02:55:22.067Z,85.62
2018-10-09T02:57:50.268Z,84.54
2018-10-09T03:00:18.500Z,85.93
2018-10-09T03:02:46.730Z,86.14
2018-10-09T03:05:14.957Z,86.58
2018-10-09T03:07:43.253Z,84.98
2018-10-09T03:10:11.456Z,86.85
2018-10-09T03:12:40.403Z,86.57
2018-10-09T03:15:08.771Z,86.26
2018-10-09T03:17:37.005Z,86.47
2018-10-09T03:20:05.278Z,87.68
2018-10-09T03:22:33.471Z,88.68
2018-10-09T03:25:01.673Z,86.96
2018-10-09T03:27:42.333Z,86.35
2018-10-09T03:30:11.657Z,87.49
2018-10-09T03:32:39.861Z,88.02
2018-10-09T03:35:08.286Z,88.19
2018-10-09T03:37:36.691Z,87.35
2018-10-09T03:40:04.985Z,87.65
2018-10-09T03:42:33.243Z,88.15
2018-10-09T03:45:01.810Z,88.24
2018-10-09T03:47:30.052Z,88.96
2018-10-09T03:49:58.268Z,87.76
2018-10-09T03:52:26.495Z,88.33
2018-10-09T03:54:54.730Z,88.18
2018-10-09T03:57:22.986Z,88.71
2018-10-09T03:59:51.189Z,89.62
2018-10-09T04:02:19.401Z,90.57
2018-10-09T04:04:47.734Z,89.77
2018-10-09T04:07:15.981Z,89.72
2018-10-09T04:09:44.576Z,90.61
2018-10-09T04:12:12.783Z,90.78
2018-10-09T04:14:42.036Z,90.87
2018-10-09T04:17:10.269Z,91.18
2018-10-09T04:19:38.484Z,90.09
2018-10-09T04:22:07.873Z,90.01
2018-10-09T04:24:36.138Z,89.60
2018-10-09T04:27:04.514Z,89.35
2018-10-09T04:29:32.832Z,89.03
2018-10-09T04:32:00.981Z,88.56
2018-10-09T04:34:29.216Z,88.62
2018-10-09T04:36:57.453Z,88.59
2018-10-09T04:39:25.676Z,88.91
2018-10-09T04:41:53.896Z,89.27
2018-10-09T04:44:22.110Z,89.24
2018-10-09T04:46:50.350Z,90.73
2018-10-09T04:49:18.570Z,92.15
2018-10-09T04:51:46.801Z,92.10
2018-10-09T04:54:15.046Z,91.47
2018-10-09T04:56:43.286Z,92.04
2018-10-09T04:59:11.577Z,91.79
2018-10-09T05:01:39.778Z,91.53
2018-10-09T05:04:07.989Z,90.92
2018-10-09T05:06:36.340Z,92.15
2018-10-09T05:09:07.751Z,91.38
2018-10-09T05:11:35.948Z,91.24
2018-10-09T05:14:04.199Z,91.40
2018-10-09T05:16:32.474Z,90.68
2018-10-09T05:19:00.680Z,89.80
2018-10-09T05:21:28.907Z,90.17
2018-10-09T05:23:57.205Z,90.95
2018-10-09T05:26:25.452Z,91.13
2018-10-09T05:28:54.029Z,90.49
2018-10-09T05:31:22.399Z,90.78
2018-10-09T05:33:54.112Z,90.30
2018-10-09T05:36:22.371Z,89.49
2018-10-09T05:38:50.601Z,89.33
2018-10-09T05:41:18.840Z,89.61
2018-10-09T05:43:47.087Z,90.41
2018-10-09T05:46:17.330Z,90.55
2018-10-09T05:48:45.521Z,90.43
2018-10-09T05:51:13.772Z,89.73
2018-10-09T05:53:41.974Z,89.58
2018-10-09T05:56:10.213Z,89.49
2018-10-09T05:58:38.424Z,89.41
2018-10-09T06:01:06.849Z,89.01
2018-10-09T06:03:35.065Z,89.48
2018-10-09T06:06:03.373Z,90.15
2018-10-09T06:08:31.721Z,90.45
2018-10-09T06:11:00.073Z,89.53
2018-10-09T06:13:29.361Z,89.13
2018-10-09T06:15:58.454Z,89.52
2018-10-09T06:18:26.699Z,88.90
2018-10-09T06:20:54.934Z,89.17
2018-10-09T06:23:24.091Z,89.52
2018-10-09T06:25:53.384Z,90.14
2018-10-09T06:28:21.626Z,90.94
2018-10-09T06:30:49.859Z,90.08
2018-10-09T06:33:18.133Z,89.05
2018-10-09T06:35:46.360Z,89.63
2018-10-09T06:38:14.592Z,89.33
2018-10-09T06:40:42.874Z,89.56
2018-10-09T06:43:11.049Z,90.30
2018-10-09T06:45:39.269Z,89.21
2018-10-09T06:48:07.573Z,89.24
2018-10-09T06:50:35.817Z,89.90
2018-10-09T06:53:04.074Z,91.08
2018-10-09T06:55:32.382Z,90.86
2018-10-09T06:58:00.621Z,91.46
2018-10-09T07:00:28.883Z,89.02
2018-10-09T07:02:59.905Z,87.63
2018-10-09T07:05:28.337Z,86.59
2018-10-09T07:07:57.045Z,86.76
2018-10-09T07:10:25.362Z,85.57
2018-10-09T07:12:53.650Z,85.12
2018-10-09T07:15:21.873Z,85.41
2018-10-09T07:17:53.516Z,84.88
2018-10-09T07:20:21.741Z,84.16
2018-10-09T07:22:49.960Z,84.06
2018-10-09T07:25:18.197Z,83.01
2018-10-09T07:27:46.518Z,83.53
2018-10-09T07:30:14.669Z,84.51
2018-10-09T07:32:42.915Z,83.90
2018-10-09T07:35:11.635Z,83.94
2018-10-09T07:37:41.079Z,83.28
2018-10-09T07:40:09.290Z,85.13
2018-10-09T07:42:39.530Z,83.21
2018-10-09T07:45:07.853Z,83.78
2018-10-09T07:47:36.109Z,82.56
2018-10-09T07:50:04.556Z,83.67
2018-10-09T07:52:32.854Z,82.24
2018-10-09T07:55:01.221Z,82.24
2018-10-09T07:57:29.441Z,83.52
2018-10-09T07:59:59.722Z,82.83
2018-10-09T08:02:29.008Z,81.75
2018-10-09T08:05:02.090Z,80.54
2018-10-09T08:07:31.337Z,80.66
2018-10-09T08:09:59.604Z,81.78
2018-10-09T08:12:29.907Z,81.92
2018-10-09T08:15:00.169Z,81.21
2018-10-09T08:17:28.421Z,82.31
2018-10-09T08:19:56.778Z,81.76
2018-10-09T08:22:25.129Z,79.54
2018-10-09T08:24:53.469Z,80.96
2018-10-09T08:27:25.016Z,82.52
2018-10-09T08:29:57.724Z,80.78
2018-10-09T08:32:26.063Z,81.35
2018-10-09T08:34:54.265Z,82.23
2018-10-09T08:37:25.825Z,81.06
2018-10-09T08:39:54.134Z,82.43
2018-10-09T08:42:22.356Z,82.57
2018-10-09T08:44:50.565Z,80.46
2018-10-09T08:47:20.926Z,81.25
2018-10-09T08:49:51.197Z,81.27
2018-10-09T08:52:19.498Z,80.70
2018-10-09T08:54:47.785Z,81.25
2018-10-09T08:57:16.071Z,80.81
2018-10-09T08:59:46.293Z,79.21
2018-10-09T09:02:14.553Z,79.85
2018-10-09T09:04:42.759Z,78.83
2018-10-09T09:07:10.966Z,78.11
2018-10-09T09:09:42.697Z,77.62
2018-10-09T09:12:10.842Z,77.85
2018-10-09T09:14:39.058Z,76.46
2018-10-09T09:17:07.295Z,77.35
2018-10-09T09:19:35.665Z,77.36
2018-10-09T09:22:03.908Z,77.29
2018-10-09T09:24:33.214Z,77.80
2018-10-09T09:27:01.788Z,77.04
2018-10-09T09:29:30.065Z,77.61
2018-10-09T09:31:59.366Z,76.79
2018-10-09T09:34:27.637Z,77.17
2018-10-09T09:36:55.908Z,76.56
2018-10-09T09:39:24.212Z,76.62
2018-10-09T09:41:52.463Z,77.17
2018-10-09T09:44:20.831Z,76.85
2018-10-09T09:46:49.117Z,77.32
2018-10-09T09:49:18.401Z,76.63
2018-10-09T09:51:46.741Z,76.61
2018-10-09T09:54:15.081Z,74.92
2018-10-09T09:56:43.366Z,75.83
2018-10-09T09:59:11.785Z,74.49
2018-10-09T10:01:41.506Z,74.83
2018-10-09T10:04:10.032Z,74.32
2018-10-09T10:06:38.290Z,74.73
2018-10-09T10:09:07.567Z,73.71
2018-10-09T10:11:35.843Z,73.01
2018-10-09T10:14:04.086Z,72.76
2018-10-09T10:16:38.861Z,73.77
2018-10-09T10:19:07.338Z,72.99
2018-10-09T10:21:48.437Z,73.30
2018-10-09T10:24:22.378Z,71.65
2018-10-09T10:26:52.697Z,70.99
2018-10-09T10:29:21.991Z,72.24
2018-10-09T10:31:50.377Z,71.14
2018-10-09T10:34:20.905Z,72.05
2018-10-09T10:36:50.504Z,71.59
2018-10-09T10:39:19.449Z,70.09
2018-10-09T10:41:51.008Z,70.59
2018-10-09T10:44:19.249Z,69.19
2018-10-09T10:46:47.515Z,70.22
2018-10-09T10:49:16.805Z,68.67
2018-10-09T10:51:45.670Z,69.35
2018-10-09T10:54:15.962Z,69.68
2018-10-09T10:56:44.194Z,69.37
2018-10-09T10:59:12.414Z,69.15
2018-10-09T11:01:40.707Z,68.52
2018-10-09T11:06:48.350Z,68.55
2018-10-09T11:09:17.659Z,67.81
2018-10-09T11:11:47.977Z,67.79
2018-10-09T11:14:16.282Z,69.19
2018-10-09T11:16:44.529Z,68.63
2018-10-09T11:19:12.740Z,68.61
2018-10-09T11:21:41.061Z,67.13
2018-10-09T11:24:09.205Z,66.79
2018-10-09T11:26:38.521Z,66.88
2018-10-09T11:29:06.744Z,66.37
2018-10-09T11:31:34.985Z,66.67
2018-10-09T11:34:03.226Z,65.17
2018-10-09T11:36:31.461Z,65.37
2018-10-09T11:38:59.778Z,64.77
2018-10-09T11:41:28.037Z,64.83
2018-10-09T11:43:56.253Z,65.34
2018-10-09T11:46:24.542Z,64.12
2018-10-09T11:48:52.777Z,64.48
2018-10-09T11:51:21.098Z,64.13
2018-10-09T11:53:49.345Z,64.83
2018-10-09T11:56:17.573Z,63.79
2018-10-09T11:58:45.899Z,64.18
2018-10-09T12:01:14.056Z,63.90
2018-10-09T12:03:42.257Z,64.68
2018-10-09T12:06:10.501Z,64.80
2018-10-09T12:08:38.748Z,62.89
2018-10-09T12:11:07.088Z,63.95
2018-10-09T12:13:35.271Z,63.15
2018-10-09T12:16:03.522Z,63.39
2018-10-09T12:18:31.882Z,63.45
2018-10-09T12:21:00.117Z,62.72
2018-10-09T12:23:28.350Z,61.20
2018-10-09T12:25:56.604Z,62.50
2018-10-09T12:28:24.861Z,61.03
2018-10-09T12:30:53.089Z,60.97
2018-10-09T12:33:21.394Z,61.41
2018-10-09T12:35:49.616Z,61.04
2018-10-09T12:38:17.933Z,60.94
2018-10-09T12:40:46.290Z,62.39
2018-10-09T12:43:14.568Z,62.70
2018-10-09T12:45:42.794Z,62.20
2018-10-09T12:48:13.145Z,62.89
2018-10-09T12:50:41.390Z,62.57
2018-10-09T12:53:09.633Z,62.36
2018-10-09T12:55:37.859Z,62.77
2018-10-09T12:58:06.073Z,62.36
2018-10-09T13:00:34.313Z,61.83
2018-10-09T13:03:02.593Z,64.05
2018-10-09T13:05:30.844Z,63.88
2018-10-09T13:07:59.093Z,63.71
2018-10-09T13:10:27.390Z,63.67
2018-10-09T13:12:57.709Z,64.48
2018-10-09T13:15:26.363Z,64.01
2018-10-09T13:17:54.689Z,64.29
2018-10-09T13:20:24.050Z,64.82
2018-10-09T13:22:52.486Z,64.51
2018-10-09T13:25:20.922Z,64.12
2018-10-09T13:27:49.126Z,64.40
2018-10-09T13:30:17.376Z,62.68
2018-10-09T13:32:46.675Z,60.37
2018-10-09T13:35:14.905Z,59.54
2018-10-09T13:37:43.146Z,58.04
2018-10-09T13:40:11.397Z,58.50
2018-10-09T13:42:39.650Z,58.12
2018-10-09T13:45:07.953Z,58.23
2018-10-09T13:47:36.298Z,57.75
2018-10-09T13:50:04.502Z,56.41
2018-10-09T13:52:32.820Z,56.34
2018-10-09T13:55:01.141Z,55.94
2018-10-09T13:57:29.431Z,56.39
2018-10-09T13:59:57.669Z,54.44
2018-10-09T14:02:26.082Z,54.70
2018-10-09T14:04:54.413Z,54.09
2018-10-09T14:07:22.649Z,55.23
2018-10-09T14:09:50.880Z,54.68
2018-10-09T14:12:19.307Z,54.32
2018-10-09T14:14:47.517Z,55.24
2018-10-09T14:17:15.733Z,55.24
2018-10-09T14:19:44.028Z,54.19
2018-10-09T14:22:12.505Z,55.18
2018-10-09T14:24:43.897Z,54.10
2018-10-09T14:27:12.125Z,53.63
2018-10-09T14:29:40.387Z,52.97
2018-10-09T14:32:08.629Z,54.00
2018-10-09T14:34:36.863Z,54.74
2018-10-09T14:37:05.192Z,54.38
2018-10-09T14:39:33.406Z,53.75
2018-10-09T14:42:01.653Z,54.77
2018-10-09T14:44:29.933Z,54.64
2018-10-09T14:46:58.178Z,54.10
2018-10-09T14:49:27.370Z,55.35
2018-10-09T14:51:55.561Z,54.63
2018-10-09T14:54:24.232Z,54.38
2018-10-09T14:56:52.521Z,56.83
2018-10-09T14:59:20.824Z,56.56
2018-10-09T15:01:49.091Z,56.54
2018-10-09T15:04:17.336Z,57.07
2018-10-09T15:06:52.601Z,57.08
2018-10-09T15:09:20.900Z,56.48
2018-10-09T15:11:49.135Z,56.80
2018-10-09T15:14:18.783Z,57.59
2018-10-09T15:16:48.265Z,58.06
2018-10-09T15:19:16.404Z,58.74
2018-10-09T15:21:47.105Z,58.21
2018-10-09T15:24:15.309Z,57.49
2018-10-09T15:26:43.582Z,59.35
2018-10-09T15:29:11.939Z,58.62
2018-10-09T15:31:40.052Z,59.35
2018-10-09T15:34:08.261Z,58.65
2018-10-09T15:36:36.499Z,58.37
2018-10-09T15:39:07.660Z,58.30
2018-10-09T15:41:35.995Z,58.93
2018-10-09T15:44:04.172Z,58.96
2018-10-09T15:46:32.427Z,59.16
2018-10-09T15:49:00.630Z,58.67
2018-10-09T15:51:28.909Z,59.00
2018-10-09T15:53:57.126Z,60.17
2018-10-09T15:56:25.385Z,60.31
2018-10-09T15:58:53.689Z,59.83
2018-10-09T16:01:21.906Z,59.68
2018-10-09T16:03:50.171Z,60.38
2018-10-09T16:06:18.401Z,59.72
2018-10-09T16:08:46.674Z,60.84
2018-10-09T16:11:14.941Z,61.00
2018-10-09T16:13:44.226Z,61.66
2018-10-09T16:16:14.682Z,61.75
2018-10-09T16:18:42.937Z,62.10
2018-10-09T16:21:11.225Z,62.55
2018-10-09T16:23:39.422Z,61.52
2018-10-09T16:26:07.701Z,62.01
2018-10-09T16:28:35.901Z,62.95
2018-10-09T16:31:04.113Z,62.56
2018-10-09T16:33:32.393Z,63.04
2018-10-09T16:36:00.617Z,64.12
2018-10-09T16:38:28.845Z,63.68
2018-10-09T16:40:57.110Z,64.48
2018-10-09T16:43:25.322Z,64.08
2018-10-09T16:45:53.717Z,64.82
2018-10-09T16:48:23.018Z,65.02
2018-10-09T16:50:51.326Z,66.69
2018-10-09T16:53:19.578Z,67.43
2018-10-09T16:55:47.790Z,67.91
2018-10-09T16:58:16.013Z,68.04
2018-10-09T17:00:44.246Z,68.95
2018-10-09T17:03:12.464Z,68.49
2018-10-09T17:05:40.784Z,68.78
2018-10-09T17:08:09.097Z,69.43
2018-10-09T17:10:37.357Z,68.97
2018-10-09T17:13:05.602Z,70.52
2018-10-09T17:15:33.937Z,70.52
2018-10-09T17:18:02.146Z,70.43
2018-10-09T17:20:30.357Z,70.96
2018-10-09T17:22:58.605Z,71.80
2018-10-09T17:25:26.805Z,72.33
2018-10-09T17:27:55.176Z,72.33
2018-10-09T17:30:23.401Z,72.22
2018-10-09T17:32:52.305Z,72.73
2018-10-09T17:35:20.618Z,73.27
2018-10-09T17:37:52.222Z,72.98
2018-10-09T17:40:20.525Z,73.34
2018-10-09T17:42:49.446Z,72.55
2018-10-09T17:45:17.724Z,74.08
2018-10-09T17:47:45.991Z,73.17
2018-10-09T17:50:14.215Z,73.25
2018-10-09T17:52:42.466Z,74.33
2018-10-09T17:55:10.737Z,75.01
2018-10-09T17:57:39.205Z,75.16
2018-10-09T18:00:08.388Z,75.30
2018-10-09T18:02:36.764Z,75.53
2018-10-09T18:05:05.386Z,75.98
2018-10-09T18:07:33.606Z,76.46
2018-10-09T18:10:01.991Z,76.83
2018-10-09T18:12:30.210Z,76.77
2018-10-09T18:14:58.493Z,77.26
2018-10-09T18:17:26.739Z,76.79
2018-10-09T18:19:54.974Z,77.35
2018-10-09T18:22:23.173Z,76.99
2018-10-09T18:24:51.511Z,78.08
2018-10-09T18:27:19.733Z,77.84
2018-10-09T18:29:47.971Z,78.05
2018-10-09T18:32:16.206Z,78.18
2018-10-09T18:34:44.504Z,77.88
2018-10-09T18:37:12.763Z,77.22
2018-10-09T18:39:41.025Z,77.13
2018-10-09T18:42:09.282Z,77.74
2018-10-09T18:44:37.584Z,77.37
2018-10-09T18:47:10.015Z,79.17
2018-10-09T18:49:38.257Z,78.07
2018-10-09T18:52:06.510Z,78.54
2018-10-09T18:54:34.729Z,78.05
2018-10-09T18:57:02.997Z,79.23
2018-10-09T18:59:31.250Z,79.64
2018-10-09T19:01:59.469Z,79.55
2018-10-09T19:04:27.725Z,78.87
2018-10-09T19:06:56.097Z,80.02
2018-10-09T19:09:24.332Z,80.29
2018-10-09T19:11:52.557Z,79.92
2018-10-09T19:14:20.871Z,79.78
2018-10-09T19:16:50.166Z,80.89
2018-10-09T19:19:18.427Z,82.08
2018-10-09T19:21:53.354Z,81.20
2018-10-09T19:24:21.635Z,82.30
2018-10-09T19:26:49.845Z,82.77
2018-10-09T19:29:18.091Z,82.55
2018-10-09T19:31:46.410Z,82.37
2018-10-09T19:34:14.636Z,82.89
2018-10-09T19:36:42.878Z,83.54
2018-10-09T19:39:13.026Z,82.71
2018-10-09T19:41:41.269Z,82.21
2018-10-09T19:44:09.525Z,82.83
2018-10-09T19:46:38.429Z,81.81
2018-10-09T19:49:06.722Z,81.83
2018-10-09T19:51:34.999Z,82.55
2018-10-09T19:54:03.232Z,82.46
2018-10-09T19:56:31.853Z,82.17
2018-10-09T19:59:00.166Z,82.44
2018-10-09T20:01:28.438Z,82.97
2018-10-09T20:03:56.665Z,82.79
2018-10-09T20:06:25.945Z,83.38
2018-10-09T20:08:54.192Z,84.12
2018-10-09T20:11:22.413Z,84.31
2018-10-09T20:13:50.624Z,83.89
2018-10-09T20:16:18.873Z,83.45
2018-10-09T20:18:47.174Z,82.91
2018-10-09T20:21:15.410Z,82.43
2018-10-09T20:23:43.619Z,82.00
2018-10-09T20:26:11.918Z,82.26
2018-10-09T20:28:40.146Z,81.45
2018-10-09T20:31:08.362Z,80.92
2018-10-09T20:33:36.586Z,81.53
2018-10-09T20:36:04.803Z,81.92
2018-10-09T20:38:33.089Z,81.23
2018-10-09T20:41:01.378Z,80.31
2018-10-09T20:43:29.602Z,81.04
2018-10-09T20:45:57.849Z,81.32
2018-10-09T20:48:26.102Z,82.38
2018-10-09T20:50:54.331Z,82.91
2018-10-09T20:53:22.574Z,81.11
2018-10-09T20:55:50.873Z,81.11
2018-10-09T20:58:19.138Z,82.07
2018-10-09T21:00:47.347Z,81.82
2018-10-09T21:03:15.601Z,81.77
2018-10-09T21:05:43.952Z,82.18
2018-10-09T21:08:12.094Z,82.17
2018-10-09T21:10:40.293Z,82.40
2018-10-09T21:13:08.516Z,81.91
2018-10-09T21:15:36.749Z,82.40
2018-10-09T21:18:05.002Z,82.05
2018-10-09T21:20:33.230Z,82.37
2018-10-09T21:23:01.445Z,82.87
2018-10-09T21:25:29.717Z,82.51
2018-10-09T21:27:57.931Z,82.14
2018-10-09T21:30:27.218Z,82.16
2018-10-09T21:32:55.443Z,82.13
2018-10-09T21:35:23.649Z,82.27
2018-10-09T21:37:51.885Z,82.08
2018-10-09T21:40:20.132Z,82.98
2018-10-09T21:42:48.326Z,82.93
2018-10-09T21:45:16.598Z,83.73
2018-10-09T21:47:50.180Z,83.02
2018-10-09T21:50:18.450Z,83.55
2018-10-09T21:52:46.668Z,83.37
2018-10-09T21:55:19.798Z,83.51
2018-10-09T21:57:48.282Z,82.62
2018-10-09T22:00:16.528Z,82.19
2018-10-09T22:02:44.807Z,81.78
2018-10-09T22:05:13.036Z,82.95
2018-10-09T22:07:41.296Z,82.66
2018-10-09T22:10:09.533Z,82.36
2018-10-09T22:12:37.777Z,82.82
2018-10-09T22:15:06.254Z,82.29
2018-10-09T22:17:34.521Z,84.61
2018-10-09T22:20:02.779Z,83.13
2018-10-09T22:22:31.010Z,82.77
2018-10-09T22:24:59.246Z,83.04
2018-10-09T22:27:27.491Z,81.80
2018-10-09T22:29:55.736Z,83.56
2018-10-09T22:32:23.966Z,83.16
2018-10-09T22:34:52.200Z,82.34
2018-10-09T22:37:21.537Z,83.33
2018-10-09T22:39:49.757Z,82.95
2018-10-09T22:42:17.980Z,83.09
2018-10-09T22:44:46.181Z,82.64
2018-10-09T22:47:14.406Z,82.67
2018-10-09T22:49:42.655Z,82.75
2018-10-09T22:52:10.898Z,81.92
2018-10-09T22:54:39.160Z,82.50
2018-10-09T22:57:07.402Z,81.99
2018-10-09T22:59:35.678Z,83.64
2018-10-09T23:02:03.917Z,83.55
2018-10-09T23:04:32.125Z,82.72
2018-10-09T23:07:00.355Z,82.68
2018-10-09T23:09:28.576Z,82.89
2018-10-09T23:11:56.881Z,82.47
2018-10-09T23:14:25.244Z,82.05
2018-10-09T23:16:53.539Z,82.35
2018-10-09T23:19:23.891Z,82.44
2018-10-09T23:21:52.109Z,83.69
2018-10-09T23:24:20.346Z,82.73
2018-10-09T23:26:48.638Z,83.10
2018-10-09T23:29:16.862Z,82.74
2018-10-09T23:31:45.154Z,82.53
2018-10-09T23:34:13.370Z,83.15
2018-10-09T23:36:41.622Z,83.58
2018-10-09T23:39:09.905Z,83.61
2018-10-09T23:41:38.126Z,84.76
2018-10-09T23:44:06.437Z,85.75
2018-10-09T23:46:34.700Z,85.92
2018-10-09T23:49:02.957Z,86.17
2018-10-09T23:51:31.191Z,87.06
2018-10-09T23:53:59.446Z,86.97
2018-10-09T23:56:27.743Z,89.20
2018-10-09T23:58:55.999Z,88.17
